sensor_id;sensor_type;location;lat;lon;timestamp;temperature;humidity
66373;SHT30;53168;51.146;17.120;2023-06-26T00:02:12;17.67;67.83
66373;SHT30;53168;51.146;17.120;2023-06-26T00:04:42;17.66;67.90
66373;SHT30;53168;51.146;17.120;2023-06-26T00:07:12;17.64;67.98
66373;SHT30;53168;51.146;17.120;2023-06-26T00:09:42;17.62;68.28
66373;SHT30;53168;51.146;17.120;2023-06-26T00:12:13;17.60;68.33
66373;SHT30;53168;51.146;17.120;2023-06-26T00:14:59;17.57;68.72
66373;SHT30;53168;51.146;17.120;2023-06-26T00:17:32;17.56;68.56
66373;SHT30;53168;51.146;17.120;2023-06-26T00:20:10;17.55;68.62
66373;SHT30;53168;51.146;17.120;2023-06-26T00:23:07;17.53;68.78
66373;SHT30;53168;51.146;17.120;2023-06-26T00:32:45;17.43;69.86
66373;SHT30;53168;51.146;17.120;2023-06-26T00:35:30;17.41;70.09
66373;SHT30;53168;51.146;17.120;2023-06-26T00:41:36;17.39;70.34
66373;SHT30;53168;51.146;17.120;2023-06-26T00:44:25;17.36;70.45
66373;SHT30;53168;51.146;17.120;2023-06-26T00:47:26;17.33;70.53
66373;SHT30;53168;51.146;17.120;2023-06-26T00:50:24;17.31;70.46
66373;SHT30;53168;51.146;17.120;2023-06-26T00:53:39;17.31;70.50
66373;SHT30;53168;51.146;17.120;2023-06-26T00:56:37;17.30;70.59
66373;SHT30;53168;51.146;17.120;2023-06-26T00:59:56;17.25;70.63
66373;SHT30;53168;51.146;17.120;2023-06-26T01:02:32;17.24;70.79
66373;SHT30;53168;51.146;17.120;2023-06-26T01:05:04;17.22;71.11
66373;SHT30;53168;51.146;17.120;2023-06-26T01:07:37;17.19;71.02
66373;SHT30;53168;51.146;17.120;2023-06-26T01:10:08;17.15;71.14
66373;SHT30;53168;51.146;17.120;2023-06-26T01:12:39;17.14;71.32
66373;SHT30;53168;51.146;17.120;2023-06-26T01:15:10;17.15;71.52
66373;SHT30;53168;51.146;17.120;2023-06-26T01:17:41;17.13;71.88
66373;SHT30;53168;51.146;17.120;2023-06-26T01:20:14;17.09;72.14
66373;SHT30;53168;51.146;17.120;2023-06-26T01:22:53;17.06;72.13
66373;SHT30;53168;51.146;17.120;2023-06-26T01:25:39;17.04;72.37
66373;SHT30;53168;51.146;17.120;2023-06-26T01:28:32;17.08;72.61
66373;SHT30;53168;51.146;17.120;2023-06-26T01:31:06;17.07;72.76
66373;SHT30;53168;51.146;17.120;2023-06-26T01:33:45;17.07;72.66
66373;SHT30;53168;51.146;17.120;2023-06-26T01:36:17;17.05;72.57
66373;SHT30;53168;51.146;17.120;2023-06-26T01:39:14;17.05;72.72
66373;SHT30;53168;51.146;17.120;2023-06-26T01:42:34;17.03;72.67
66373;SHT30;53168;51.146;17.120;2023-06-26T01:49:13;16.95;73.28
66373;SHT30;53168;51.146;17.120;2023-06-26T01:59:27;16.92;73.28
66373;SHT30;53168;51.146;17.120;2023-06-26T02:02:09;16.90;73.54
66373;SHT30;53168;51.146;17.120;2023-06-26T02:04:53;16.88;73.36
66373;SHT30;53168;51.146;17.120;2023-06-26T02:07:24;16.85;73.47
66373;SHT30;53168;51.146;17.120;2023-06-26T02:09:56;16.84;73.45
66373;SHT30;53168;51.146;17.120;2023-06-26T02:12:27;16.83;73.62
66373;SHT30;53168;51.146;17.120;2023-06-26T02:14:57;16.84;73.56
66373;SHT30;53168;51.146;17.120;2023-06-26T02:17:27;16.83;73.56
66373;SHT30;53168;51.146;17.120;2023-06-26T02:19:58;16.79;73.62
66373;SHT30;53168;51.146;17.120;2023-06-26T02:22:32;16.75;73.87
66373;SHT30;53168;51.146;17.120;2023-06-26T02:25:05;16.70;73.98
66373;SHT30;53168;51.146;17.120;2023-06-26T02:27:39;16.65;74.14
66373;SHT30;53168;51.146;17.120;2023-06-26T02:30:21;16.62;74.30
66373;SHT30;53168;51.146;17.120;2023-06-26T02:32:52;16.62;74.13
66373;SHT30;53168;51.146;17.120;2023-06-26T02:35:37;16.62;74.09
66373;SHT30;53168;51.146;17.120;2023-06-26T02:38:07;16.62;74.09
66373;SHT30;53168;51.146;17.120;2023-06-26T02:40:48;16.62;74.14
66373;SHT30;53168;51.146;17.120;2023-06-26T02:43:25;16.62;74.20
66373;SHT30;53168;51.146;17.120;2023-06-26T02:46:05;16.63;74.18
66373;SHT30;53168;51.146;17.120;2023-06-26T02:48:38;16.63;74.29
66373;SHT30;53168;51.146;17.120;2023-06-26T02:51:10;16.61;74.31
66373;SHT30;53168;51.146;17.120;2023-06-26T02:54:12;16.59;74.23
66373;SHT30;53168;51.146;17.120;2023-06-26T02:56:43;16.57;74.31
66373;SHT30;53168;51.146;17.120;2023-06-26T02:59:16;16.58;74.39
66373;SHT30;53168;51.146;17.120;2023-06-26T03:01:47;16.58;74.41
66373;SHT30;53168;51.146;17.120;2023-06-26T03:04:18;16.54;74.45
66373;SHT30;53168;51.146;17.120;2023-06-26T03:06:49;16.55;74.56
66373;SHT30;53168;51.146;17.120;2023-06-26T03:09:19;16.53;74.54
66373;SHT30;53168;51.146;17.120;2023-06-26T03:11:50;16.54;74.55
66373;SHT30;53168;51.146;17.120;2023-06-26T03:14:24;16.56;74.66
66373;SHT30;53168;51.146;17.120;2023-06-26T03:16:56;16.57;74.75
66373;SHT30;53168;51.146;17.120;2023-06-26T03:19:29;16.58;74.90
66373;SHT30;53168;51.146;17.120;2023-06-26T03:22:16;16.59;74.94
66373;SHT30;53168;51.146;17.120;2023-06-26T03:24:46;16.61;75.05
66373;SHT30;53168;51.146;17.120;2023-06-26T03:27:15;16.65;74.96
66373;SHT30;53168;51.146;17.120;2023-06-26T03:29:48;16.67;74.99
66373;SHT30;53168;51.146;17.120;2023-06-26T03:32:19;16.69;74.88
66373;SHT30;53168;51.146;17.120;2023-06-26T03:34:51;16.74;74.72
66373;SHT30;53168;51.146;17.120;2023-06-26T03:37:22;16.78;74.65
66373;SHT30;53168;51.146;17.120;2023-06-26T03:39:53;16.81;74.69
66373;SHT30;53168;51.146;17.120;2023-06-26T03:42:23;16.84;74.62
66373;SHT30;53168;51.146;17.120;2023-06-26T03:44:57;16.89;74.67
66373;SHT30;53168;51.146;17.120;2023-06-26T03:47:29;16.92;74.63
66373;SHT30;53168;51.146;17.120;2023-06-26T03:50:06;16.96;74.60
66373;SHT30;53168;51.146;17.120;2023-06-26T03:52:36;17.00;74.57
66373;SHT30;53168;51.146;17.120;2023-06-26T03:55:08;17.05;74.61
66373;SHT30;53168;51.146;17.120;2023-06-26T03:57:38;17.11;74.54
66373;SHT30;53168;51.146;17.120;2023-06-26T04:00:14;17.18;74.42
66373;SHT30;53168;51.146;17.120;2023-06-26T04:02:49;17.27;74.40
66373;SHT30;53168;51.146;17.120;2023-06-26T04:05:22;17.56;74.43
66373;SHT30;53168;51.146;17.120;2023-06-26T04:07:57;18.11;73.89
66373;SHT30;53168;51.146;17.120;2023-06-26T04:10:31;18.46;73.18
66373;SHT30;53168;51.146;17.120;2023-06-26T04:13:20;18.35;72.93
66373;SHT30;53168;51.146;17.120;2023-06-26T04:15:49;18.25;73.17
66373;SHT30;53168;51.146;17.120;2023-06-26T04:18:19;18.19;73.15
66373;SHT30;53168;51.146;17.120;2023-06-26T04:21:07;18.15;73.20
66373;SHT30;53168;51.146;17.120;2023-06-26T04:23:50;18.13;73.19
66373;SHT30;53168;51.146;17.120;2023-06-26T04:30:37;18.21;73.21
66373;SHT30;53168;51.146;17.120;2023-06-26T04:37:50;18.39;72.98
66373;SHT30;53168;51.146;17.120;2023-06-26T04:45:25;18.58;72.97
66373;SHT30;53168;51.146;17.120;2023-06-26T04:51:29;18.86;72.42
66373;SHT30;53168;51.146;17.120;2023-06-26T04:54:28;18.97;72.17
66373;SHT30;53168;51.146;17.120;2023-06-26T04:57:35;19.03;71.47
66373;SHT30;53168;51.146;17.120;2023-06-26T05:00:20;19.08;71.47
66373;SHT30;53168;51.146;17.120;2023-06-26T05:02:50;19.18;71.56
66373;SHT30;53168;51.146;17.120;2023-06-26T05:05:30;19.32;71.37
66373;SHT30;53168;51.146;17.120;2023-06-26T05:08:01;19.41;71.12
66373;SHT30;53168;51.146;17.120;2023-06-26T05:10:44;19.51;70.98
66373;SHT30;53168;51.146;17.120;2023-06-26T05:13:14;19.57;70.88
66373;SHT30;53168;51.146;17.120;2023-06-26T05:15:46;19.63;70.75
66373;SHT30;53168;51.146;17.120;2023-06-26T05:41:26;20.54;69.25
66373;SHT30;53168;51.146;17.120;2023-06-26T05:44:00;20.67;69.10
66373;SHT30;53168;51.146;17.120;2023-06-26T05:46:35;20.80;68.89
66373;SHT30;53168;51.146;17.120;2023-06-26T05:49:12;20.93;68.55
66373;SHT30;53168;51.146;17.120;2023-06-26T05:51:48;21.06;68.52
66373;SHT30;53168;51.146;17.120;2023-06-26T05:54:24;21.18;68.63
66373;SHT30;53168;51.146;17.120;2023-06-26T05:57:00;21.27;68.77
66373;SHT30;53168;51.146;17.120;2023-06-26T05:59:50;21.41;68.66
66373;SHT30;53168;51.146;17.120;2023-06-26T06:02:25;21.53;68.00
66373;SHT30;53168;51.146;17.120;2023-06-26T06:05:05;21.62;67.93
66373;SHT30;53168;51.146;17.120;2023-06-26T06:08:04;21.74;67.67
66373;SHT30;53168;51.146;17.120;2023-06-26T06:10:43;21.83;67.58
66373;SHT30;53168;51.146;17.120;2023-06-26T06:13:22;21.92;67.59
66373;SHT30;53168;51.146;17.120;2023-06-26T06:16:18;22.02;67.60
66373;SHT30;53168;51.146;17.120;2023-06-26T06:22:08;22.33;66.16
66373;SHT30;53168;51.146;17.120;2023-06-26T06:24:45;22.37;64.81
66373;SHT30;53168;51.146;17.120;2023-06-26T06:27:22;22.40;65.17
66373;SHT30;53168;51.146;17.120;2023-06-26T06:30:00;22.46;65.16
66373;SHT30;53168;51.146;17.120;2023-06-26T06:35:56;22.73;64.54
66373;SHT30;53168;51.146;17.120;2023-06-26T06:38:30;22.82;64.78
66373;SHT30;53168;51.146;17.120;2023-06-26T06:41:04;22.93;64.24
66373;SHT30;53168;51.146;17.120;2023-06-26T06:43:53;23.04;63.93
66373;SHT30;53168;51.146;17.120;2023-06-26T06:46:34;23.15;63.70
66373;SHT30;53168;51.146;17.120;2023-06-26T06:49:13;23.23;63.58
66373;SHT30;53168;51.146;17.120;2023-06-26T06:52:35;23.37;63.18
66373;SHT30;53168;51.146;17.120;2023-06-26T06:56:03;23.52;62.21
66373;SHT30;53168;51.146;17.120;2023-06-26T06:59:21;23.62;62.37
66373;SHT30;53168;51.146;17.120;2023-06-26T07:02:19;23.74;62.27
66373;SHT30;53168;51.146;17.120;2023-06-26T07:05:13;23.87;62.10
66373;SHT30;53168;51.146;17.120;2023-06-26T07:08:45;24.01;61.63
66373;SHT30;53168;51.146;17.120;2023-06-26T07:12:05;24.14;61.33
66373;SHT30;53168;51.146;17.120;2023-06-26T07:15:02;24.26;61.02
66373;SHT30;53168;51.146;17.120;2023-06-26T07:26:19;24.65;59.19
66373;SHT30;53168;51.146;17.120;2023-06-26T07:29:53;24.77;59.14
66373;SHT30;53168;51.146;17.120;2023-06-26T07:32:55;24.92;58.54
66373;SHT30;53168;51.146;17.120;2023-06-26T07:35:45;25.02;58.16
66373;SHT30;53168;51.146;17.120;2023-06-26T07:39:13;25.09;57.97
66373;SHT30;53168;51.146;17.120;2023-06-26T07:42:09;25.21;58.36
66373;SHT30;53168;51.146;17.120;2023-06-26T07:44:55;25.31;57.81
66373;SHT30;53168;51.146;17.120;2023-06-26T07:47:35;25.39;57.64
66373;SHT30;53168;51.146;17.120;2023-06-26T07:50:48;25.48;57.36
66373;SHT30;53168;51.146;17.120;2023-06-26T07:53:36;25.63;57.33
66373;SHT30;53168;51.146;17.120;2023-06-26T07:56:56;25.77;56.55
66373;SHT30;53168;51.146;17.120;2023-06-26T07:59:44;25.87;55.87
66373;SHT30;53168;51.146;17.120;2023-06-26T08:02:53;25.91;54.80
66373;SHT30;53168;51.146;17.120;2023-06-26T08:06:15;26.00;54.90
66373;SHT30;53168;51.146;17.120;2023-06-26T08:09:35;26.12;54.34
66373;SHT30;53168;51.146;17.120;2023-06-26T08:12:24;26.19;53.57
66373;SHT30;53168;51.146;17.120;2023-06-26T08:15:17;26.20;52.96
66373;SHT30;53168;51.146;17.120;2023-06-26T08:18:12;26.23;53.61
66373;SHT30;53168;51.146;17.120;2023-06-26T08:24:58;26.51;52.74
66373;SHT30;53168;51.146;17.120;2023-06-26T08:31:10;26.74;50.53
66373;SHT30;53168;51.146;17.120;2023-06-26T08:34:08;26.87;49.81
66373;SHT30;53168;51.146;17.120;2023-06-26T08:40:34;26.97;47.61
66373;SHT30;53168;51.146;17.120;2023-06-26T08:43:45;27.05;48.34
66373;SHT30;53168;51.146;17.120;2023-06-26T08:50:00;27.22;48.14
66373;SHT30;53168;51.146;17.120;2023-06-26T08:53:27;27.30;47.81
66373;SHT30;53168;51.146;17.120;2023-06-26T08:56:58;27.42;48.00
66373;SHT30;53168;51.146;17.120;2023-06-26T09:00:09;27.46;46.73
66373;SHT30;53168;51.146;17.120;2023-06-26T09:20:29;27.44;46.56
66373;SHT30;53168;51.146;17.120;2023-06-26T09:24:14;27.56;45.49
66373;SHT30;53168;51.146;17.120;2023-06-26T09:27:02;27.57;45.65
66373;SHT30;53168;51.146;17.120;2023-06-26T09:42:53;28.06;43.42
66373;SHT30;53168;51.146;17.120;2023-06-26T09:45:37;28.10;44.68
66373;SHT30;53168;51.146;17.120;2023-06-26T09:48:15;28.28;44.89
66373;SHT30;53168;51.146;17.120;2023-06-26T09:50:50;28.39;44.07
66373;SHT30;53168;51.146;17.120;2023-06-26T09:53:43;28.41;44.80
66373;SHT30;53168;51.146;17.120;2023-06-26T09:56:20;28.46;42.29
66373;SHT30;53168;51.146;17.120;2023-06-26T09:58:57;28.49;42.64
66373;SHT30;53168;51.146;17.120;2023-06-26T10:01:36;28.28;42.69
66373;SHT30;53168;51.146;17.120;2023-06-26T10:04:12;28.22;42.20
66373;SHT30;53168;51.146;17.120;2023-06-26T10:06:51;28.27;42.47
66373;SHT30;53168;51.146;17.120;2023-06-26T10:09:30;28.06;42.68
66373;SHT30;53168;51.146;17.120;2023-06-26T10:12:09;27.90;42.94
66373;SHT30;53168;51.146;17.120;2023-06-26T10:14:48;27.79;43.28
66373;SHT30;53168;51.146;17.120;2023-06-26T10:17:28;27.73;43.06
66373;SHT30;53168;51.146;17.120;2023-06-26T10:20:13;27.70;43.81
66373;SHT30;53168;51.146;17.120;2023-06-26T10:22:51;27.70;43.92
66373;SHT30;53168;51.146;17.120;2023-06-26T10:25:32;27.92;44.93
66373;SHT30;53168;51.146;17.120;2023-06-26T10:28:15;28.30;44.65
66373;SHT30;53168;51.146;17.120;2023-06-26T10:30:55;28.85;44.28
66373;SHT30;53168;51.146;17.120;2023-06-26T10:33:31;29.22;42.82
66373;SHT30;53168;51.146;17.120;2023-06-26T10:36:19;29.20;42.00
66373;SHT30;53168;51.146;17.120;2023-06-26T10:39:05;29.08;42.66
66373;SHT30;53168;51.146;17.120;2023-06-26T10:41:42;28.73;42.62
66373;SHT30;53168;51.146;17.120;2023-06-26T10:44:27;28.55;43.48
66373;SHT30;53168;51.146;17.120;2023-06-26T10:47:32;28.78;42.74
66373;SHT30;53168;51.146;17.120;2023-06-26T10:50:25;29.08;42.23
66373;SHT30;53168;51.146;17.120;2023-06-26T10:53:22;29.39;42.66
66373;SHT30;53168;51.146;17.120;2023-06-26T10:56:02;29.71;42.13
66373;SHT30;53168;51.146;17.120;2023-06-26T10:58:43;29.78;41.70
66373;SHT30;53168;51.146;17.120;2023-06-26T11:01:23;29.50;40.99
66373;SHT30;53168;51.146;17.120;2023-06-26T11:04:06;29.40;41.40
66373;SHT30;53168;51.146;17.120;2023-06-26T11:06:47;29.52;41.75
66373;SHT30;53168;51.146;17.120;2023-06-26T11:09:55;29.88;40.86
66373;SHT30;53168;51.146;17.120;2023-06-26T11:12:40;29.97;39.96
66373;SHT30;53168;51.146;17.120;2023-06-26T11:15:20;30.12;40.57
66373;SHT30;53168;51.146;17.120;2023-06-26T11:17:56;30.27;39.14
66373;SHT30;53168;51.146;17.120;2023-06-26T11:20:34;30.32;39.52
66373;SHT30;53168;51.146;17.120;2023-06-26T11:23:09;30.51;39.54
66373;SHT30;53168;51.146;17.120;2023-06-26T11:25:48;30.74;39.67
66373;SHT30;53168;51.146;17.120;2023-06-26T11:28:29;31.07;40.61
66373;SHT30;53168;51.146;17.120;2023-06-26T11:31:03;31.68;39.99
66373;SHT30;53168;51.146;17.120;2023-06-26T11:33:37;31.90;39.75
66373;SHT30;53168;51.146;17.120;2023-06-26T11:36:12;31.88;39.35
66373;SHT30;53168;51.146;17.120;2023-06-26T11:38:46;32.16;38.56
66373;SHT30;53168;51.146;17.120;2023-06-26T11:41:31;32.29;38.23
66373;SHT30;53168;51.146;17.120;2023-06-26T11:44:10;32.45;37.21
66373;SHT30;53168;51.146;17.120;2023-06-26T11:46:50;32.55;37.08
66373;SHT30;53168;51.146;17.120;2023-06-26T11:49:29;32.78;37.48
66373;SHT30;53168;51.146;17.120;2023-06-26T11:52:06;32.83;36.01
66373;SHT30;53168;51.146;17.120;2023-06-26T11:54:40;32.95;36.85
66373;SHT30;53168;51.146;17.120;2023-06-26T11:57:18;33.20;36.97
66373;SHT30;53168;51.146;17.120;2023-06-26T12:00:14;33.55;37.08
66373;SHT30;53168;51.146;17.120;2023-06-26T12:02:59;33.99;37.04
66373;SHT30;53168;51.146;17.120;2023-06-26T12:05:35;34.36;36.30
66373;SHT30;53168;51.146;17.120;2023-06-26T12:08:11;34.63;35.78
66373;SHT30;53168;51.146;17.120;2023-06-26T12:10:50;33.98;34.43
66373;SHT30;53168;51.146;17.120;2023-06-26T12:13:40;32.94;35.60
66373;SHT30;53168;51.146;17.120;2023-06-26T12:16:26;32.41;36.58
66373;SHT30;53168;51.146;17.120;2023-06-26T12:19:39;32.64;35.84
66373;SHT30;53168;51.146;17.120;2023-06-26T12:22:19;32.93;36.21
66373;SHT30;53168;51.146;17.120;2023-06-26T12:28:43;33.94;35.39
66373;SHT30;53168;51.146;17.120;2023-06-26T12:32:07;34.44;35.67
66373;SHT30;53168;51.146;17.120;2023-06-26T12:35:28;34.61;34.79
66373;SHT30;53168;51.146;17.120;2023-06-26T12:38:52;34.88;33.99
66373;SHT30;53168;51.146;17.120;2023-06-26T12:42:22;34.75;33.02
66373;SHT30;53168;51.146;17.120;2023-06-26T12:45:50;34.20;33.19
66373;SHT30;53168;51.146;17.120;2023-06-26T12:49:05;34.16;33.44
66373;SHT30;53168;51.146;17.120;2023-06-26T12:52:17;34.61;33.56
66373;SHT30;53168;51.146;17.120;2023-06-26T12:54:58;34.99;33.37
66373;SHT30;53168;51.146;17.120;2023-06-26T12:57:37;35.22;32.67
66373;SHT30;53168;51.146;17.120;2023-06-26T13:00:17;35.38;33.17
66373;SHT30;53168;51.146;17.120;2023-06-26T13:06:24;35.70;33.06
66373;SHT30;53168;51.146;17.120;2023-06-26T13:09:31;35.36;31.80
66373;SHT30;53168;51.146;17.120;2023-06-26T13:12:45;35.42;32.28
66373;SHT30;53168;51.146;17.120;2023-06-26T13:15:54;35.69;30.99
66373;SHT30;53168;51.146;17.120;2023-06-26T13:18:47;35.87;31.91
66373;SHT30;53168;51.146;17.120;2023-06-26T13:22:24;36.36;32.35
66373;SHT30;53168;51.146;17.120;2023-06-26T13:25:39;36.72;31.83
66373;SHT30;53168;51.146;17.120;2023-06-26T13:29:07;36.70;30.47
66373;SHT30;53168;51.146;17.120;2023-06-26T13:32:00;36.47;31.43
66373;SHT30;53168;51.146;17.120;2023-06-26T13:46:42;36.62;30.13
66373;SHT30;53168;51.146;17.120;2023-06-26T13:52:50;36.58;29.75
66373;SHT30;53168;51.146;17.120;2023-06-26T13:55:28;36.75;30.53
66373;SHT30;53168;51.146;17.120;2023-06-26T13:58:06;36.84;30.85
66373;SHT30;53168;51.146;17.120;2023-06-26T14:01:09;36.82;29.64
66373;SHT30;53168;51.146;17.120;2023-06-26T14:04:04;36.64;29.49
66373;SHT30;53168;51.146;17.120;2023-06-26T14:06:53;35.84;29.58
66373;SHT30;53168;51.146;17.120;2023-06-26T14:09:48;35.21;30.15
66373;SHT30;53168;51.146;17.120;2023-06-26T14:12:24;35.20;31.07
66373;SHT30;53168;51.146;17.120;2023-06-26T14:15:02;34.75;31.48
66373;SHT30;53168;51.146;17.120;2023-06-26T14:17:44;34.33;31.91
66373;SHT30;53168;51.146;17.120;2023-06-26T14:20:19;34.59;32.39
66373;SHT30;53168;51.146;17.120;2023-06-26T14:22:53;35.20;31.98
66373;SHT30;53168;51.146;17.120;2023-06-26T14:25:27;35.87;31.05
66373;SHT30;53168;51.146;17.120;2023-06-26T14:28:02;36.22;30.46
66373;SHT30;53168;51.146;17.120;2023-06-26T14:30:35;36.62;30.39
66373;SHT30;53168;51.146;17.120;2023-06-26T14:33:10;36.94;29.06
66373;SHT30;53168;51.146;17.120;2023-06-26T14:35:44;37.27;29.66
66373;SHT30;53168;51.146;17.120;2023-06-26T14:38:29;37.76;29.66
66373;SHT30;53168;51.146;17.120;2023-06-26T15:00:01;34.71;31.74
66373;SHT30;53168;51.146;17.120;2023-06-26T15:07:48;36.22;30.78
66373;SHT30;53168;51.146;17.120;2023-06-26T15:10:21;36.72;29.87
66373;SHT30;53168;51.146;17.120;2023-06-26T15:12:58;36.82;29.87
66373;SHT30;53168;51.146;17.120;2023-06-26T15:15:32;36.98;29.66
66373;SHT30;53168;51.146;17.120;2023-06-26T15:18:06;36.96;29.72
66373;SHT30;53168;51.146;17.120;2023-06-26T15:23:57;36.47;31.02
66373;SHT30;53168;51.146;17.120;2023-06-26T15:26:31;36.98;30.65
66373;SHT30;53168;51.146;17.120;2023-06-26T15:29:07;36.96;30.66
66373;SHT30;53168;51.146;17.120;2023-06-26T15:31:49;37.35;30.16
66373;SHT30;53168;51.146;17.120;2023-06-26T15:34:26;37.83;29.95
66373;SHT30;53168;51.146;17.120;2023-06-26T15:37:05;37.19;30.20
66373;SHT30;53168;51.146;17.120;2023-06-26T15:39:46;35.90;31.15
66373;SHT30;53168;51.146;17.120;2023-06-26T15:42:28;34.97;31.80
66373;SHT30;53168;51.146;17.120;2023-06-26T15:45:07;34.47;32.14
66373;SHT30;53168;51.146;17.120;2023-06-26T15:47:43;34.77;32.37
66373;SHT30;53168;51.146;17.120;2023-06-26T15:50:20;35.50;32.06
66373;SHT30;53168;51.146;17.120;2023-06-26T15:53:04;36.06;31.29
66373;SHT30;53168;51.146;17.120;2023-06-26T15:59:38;36.21;31.36
66373;SHT30;53168;51.146;17.120;2023-06-26T16:14:33;37.72;30.14
66373;SHT30;53168;51.146;17.120;2023-06-26T16:17:22;37.90;30.17
66373;SHT30;53168;51.146;17.120;2023-06-26T16:20:06;38.03;30.02
66373;SHT30;53168;51.146;17.120;2023-06-26T16:22:43;38.03;29.59
66373;SHT30;53168;51.146;17.120;2023-06-26T16:28:17;37.94;29.79
66373;SHT30;53168;51.146;17.120;2023-06-26T16:33:31;37.85;29.83
66373;SHT30;53168;51.146;17.120;2023-06-26T16:36:11;37.85;29.69
66373;SHT30;53168;51.146;17.120;2023-06-26T16:39:30;37.71;29.81
66373;SHT30;53168;51.146;17.120;2023-06-26T16:45:45;37.56;30.04
66373;SHT30;53168;51.146;17.120;2023-06-26T16:48:25;37.55;30.08
66373;SHT30;53168;51.146;17.120;2023-06-26T16:54:28;37.42;30.14
66373;SHT30;53168;51.146;17.120;2023-06-26T16:57:26;37.11;30.39
66373;SHT30;53168;51.146;17.120;2023-06-26T17:00:12;36.09;31.28
66373;SHT30;53168;51.146;17.120;2023-06-26T17:03:13;35.02;32.24
66373;SHT30;53168;51.146;17.120;2023-06-26T17:06:07;34.22;32.66
66373;SHT30;53168;51.146;17.120;2023-06-26T17:09:31;33.60;33.43
66373;SHT30;53168;51.146;17.120;2023-06-26T17:43:13;29.14;40.99
66373;SHT30;53168;51.146;17.120;2023-06-26T17:46:11;28.89;41.49
66373;SHT30;53168;51.146;17.120;2023-06-26T17:50:02;28.59;42.13
66373;SHT30;53168;51.146;17.120;2023-06-26T17:52:57;28.37;42.57
66373;SHT30;53168;51.146;17.120;2023-06-26T17:55:44;28.15;43.15
66373;SHT30;53168;51.146;17.120;2023-06-26T17:58:37;27.97;43.43
66373;SHT30;53168;51.146;17.120;2023-06-26T18:01:44;27.78;43.93
66373;SHT30;53168;51.146;17.120;2023-06-26T18:04:42;27.61;44.25
66373;SHT30;53168;51.146;17.120;2023-06-26T18:07:20;27.50;44.65
66373;SHT30;53168;51.146;17.120;2023-06-26T18:10:44;27.36;45.10
66373;SHT30;53168;51.146;17.120;2023-06-26T18:17:02;27.10;45.98
66373;SHT30;53168;51.146;17.120;2023-06-26T18:20:33;26.95;46.23
66373;SHT30;53168;51.146;17.120;2023-06-26T18:23:59;26.82;46.54
66373;SHT30;53168;51.146;17.120;2023-06-26T18:31:25;26.52;47.36
66373;SHT30;53168;51.146;17.120;2023-06-26T18:45:18;26.12;48.70
66373;SHT30;53168;51.146;17.120;2023-06-26T18:47:56;26.02;49.04
66373;SHT30;53168;51.146;17.120;2023-06-26T18:57:29;25.77;49.90
66373;SHT30;53168;51.146;17.120;2023-06-26T19:00:22;25.70;50.19
66373;SHT30;53168;51.146;17.120;2023-06-26T19:03:23;25.65;50.56
66373;SHT30;53168;51.146;17.120;2023-06-26T19:06:19;25.58;50.91
66373;SHT30;53168;51.146;17.120;2023-06-26T19:09:15;25.52;51.12
66373;SHT30;53168;51.146;17.120;2023-06-26T19:12:13;25.46;51.41
66373;SHT30;53168;51.146;17.120;2023-06-26T19:14:55;25.43;51.69
66373;SHT30;53168;51.146;17.120;2023-06-26T19:17:28;25.38;51.88
66373;SHT30;53168;51.146;17.120;2023-06-26T19:20:05;25.33;51.97
66373;SHT30;53168;51.146;17.120;2023-06-26T19:22:46;25.28;52.00
66373;SHT30;53168;51.146;17.120;2023-06-26T19:25:22;25.24;51.97
66373;SHT30;53168;51.146;17.120;2023-06-26T19:28:05;25.18;52.33
66373;SHT30;53168;51.146;17.120;2023-06-26T19:30:43;25.13;52.42
66373;SHT30;53168;51.146;17.120;2023-06-26T19:33:22;25.08;52.40
66373;SHT30;53168;51.146;17.120;2023-06-26T19:36:04;25.01;52.55
66373;SHT30;53168;51.146;17.120;2023-06-26T19:39:17;24.94;52.59
66373;SHT30;53168;51.146;17.120;2023-06-26T19:42:06;24.91;52.62
66373;SHT30;53168;51.146;17.120;2023-06-26T19:44:48;24.86;52.85
66373;SHT30;53168;51.146;17.120;2023-06-26T19:47:33;24.80;52.89
66373;SHT30;53168;51.146;17.120;2023-06-26T19:50:11;24.75;53.13
66373;SHT30;53168;51.146;17.120;2023-06-26T19:52:54;24.70;53.15
66373;SHT30;53168;51.146;17.120;2023-06-26T19:55:38;24.66;53.21
66373;SHT30;53168;51.146;17.120;2023-06-26T19:58:42;24.63;53.20
66373;SHT30;53168;51.146;17.120;2023-06-26T20:01:37;24.60;53.34
66373;SHT30;53168;51.146;17.120;2023-06-26T20:04:24;24.61;54.66
66373;SHT30;53168;51.146;17.120;2023-06-26T20:06:58;24.53;54.71
66373;SHT30;53168;51.146;17.120;2023-06-26T20:09:39;24.39;54.99
66373;SHT30;53168;51.146;17.120;2023-06-26T20:12:13;24.17;55.78
66373;SHT30;53168;51.146;17.120;2023-06-26T20:14:55;23.94;57.40
66373;SHT30;53168;51.146;17.120;2023-06-26T20:18:11;23.56;59.66
66373;SHT30;53168;51.146;17.120;2023-06-26T20:21:23;22.83;61.42
66373;SHT30;53168;51.146;17.120;2023-06-26T20:28:07;21.41;62.89
66373;SHT30;53168;51.146;17.120;2023-06-26T20:31:04;21.02;63.73
66373;SHT30;53168;51.146;17.120;2023-06-26T20:37:32;20.38;66.55
66373;SHT30;53168;51.146;17.120;2023-06-26T20:40:17;20.16;68.21
66373;SHT30;53168;51.146;17.120;2023-06-26T20:42:53;20.03;66.82
66373;SHT30;53168;51.146;17.120;2023-06-26T20:45:29;19.97;66.99
66373;SHT30;53168;51.146;17.120;2023-06-26T20:48:05;19.92;67.05
66373;SHT30;53168;51.146;17.120;2023-06-26T20:50:42;19.88;68.04
66373;SHT30;53168;51.146;17.120;2023-06-26T20:53:17;19.83;69.50
66373;SHT30;53168;51.146;17.120;2023-06-26T20:55:52;19.79;69.65
66373;SHT30;53168;51.146;17.120;2023-06-26T20:58:28;19.73;70.16
66373;SHT30;53168;51.146;17.120;2023-06-26T21:01:23;19.72;71.70
66373;SHT30;53168;51.146;17.120;2023-06-26T21:04:00;19.68;71.68
66373;SHT30;53168;51.146;17.120;2023-06-26T21:06:35;19.66;72.06
66373;SHT30;53168;51.146;17.120;2023-06-26T21:09:13;19.60;72.58
66373;SHT30;53168;51.146;17.120;2023-06-26T21:11:48;19.55;72.83
66373;SHT30;53168;51.146;17.120;2023-06-26T21:14:23;19.52;72.58
66373;SHT30;53168;51.146;17.120;2023-06-26T21:17:02;19.50;73.67
66373;SHT30;53168;51.146;17.120;2023-06-26T21:19:37;19.48;73.87
66373;SHT30;53168;51.146;17.120;2023-06-26T21:22:13;19.43;74.47
66373;SHT30;53168;51.146;17.120;2023-06-26T21:24:53;19.38;73.88
66373;SHT30;53168;51.146;17.120;2023-06-26T21:27:32;19.36;74.07
66373;SHT30;53168;51.146;17.120;2023-06-26T21:30:09;19.34;74.76
66373;SHT30;53168;51.146;17.120;2023-06-26T21:32:51;19.33;75.44
66373;SHT30;53168;51.146;17.120;2023-06-26T21:35:25;19.31;76.70